createdAt,value
2022-08-17T00:01:51.965Z,5.73
2022-08-17T00:04:20.813Z,5.33
2022-08-17T00:06:49.139Z,4.67
2022-08-17T00:09:19.036Z,5.20
2022-08-17T00:12:42.870Z,4.87
2022-08-17T00:14:58.836Z,5.40
2022-08-17T00:17:26.335Z,5.30
2022-08-17T00:19:53.871Z,5.40
2022-08-17T00:22:34.399Z,5.87
2022-08-17T00:25:05.783Z,4.97
2022-08-17T00:27:33.503Z,4.80
2022-08-17T00:30:01.043Z,4.60
2022-08-17T00:33:12.615Z,5.40
2022-08-17T00:35:17.255Z,4.90
2022-08-17T00:37:44.787Z,5.23
2022-08-17T00:40:13.808Z,6.27
2022-08-17T00:42:41.810Z,5.67
2022-08-17T00:45:10.387Z,5.70
2022-08-17T00:47:37.923Z,5.33
2022-08-17T00:50:06.469Z,5.43
2022-08-17T00:52:36.630Z,6.63
2022-08-17T00:55:05.494Z,5.83
2022-08-17T00:57:35.890Z,5.60
2022-08-17T01:00:07.775Z,5.63
2022-08-17T01:02:42.790Z,5.83
2022-08-17T01:05:13.555Z,5.27
2022-08-17T01:07:41.641Z,5.77
2022-08-17T01:11:00.789Z,5.70
2022-08-17T01:12:57.566Z,5.77
2022-08-17T01:15:25.048Z,5.90
2022-08-17T01:17:52.597Z,5.53
2022-08-17T01:20:20.080Z,5.67
2022-08-17T01:22:47.672Z,5.77
2022-08-17T01:25:15.655Z,5.60
2022-08-17T01:27:43.507Z,5.53
2022-08-17T01:30:58.439Z,6.33
2022-08-17T01:33:00.540Z,5.60
2022-08-17T01:35:28.044Z,6.07
2022-08-17T01:37:55.567Z,6.37
2022-08-17T01:40:35.216Z,5.90
2022-08-17T01:43:07.497Z,6.10
2022-08-17T01:45:39.813Z,6.33
2022-08-17T01:48:09.860Z,5.70
2022-08-17T01:50:38.308Z,5.93
2022-08-17T01:53:07.581Z,6.60
2022-08-17T01:55:40.998Z,5.90
2022-08-17T01:58:08.796Z,5.53
2022-08-17T02:00:59.870Z,6.07
2022-08-17T02:03:27.630Z,6.07
2022-08-17T02:05:55.190Z,6.03
2022-08-17T02:08:36.900Z,7.13
2022-08-17T02:11:11.183Z,5.73
2022-08-17T02:13:39.791Z,6.30
2022-08-17T02:16:07.340Z,6.20
2022-08-17T02:18:34.899Z,5.53
2022-08-17T02:21:02.594Z,6.03
2022-08-17T02:23:31.837Z,6.50
2022-08-17T02:26:00.827Z,6.37
2022-08-17T02:28:28.607Z,5.60
2022-08-17T02:31:01.301Z,6.67
2022-08-17T02:33:33.792Z,5.80
2022-08-17T02:36:12.219Z,5.30
2022-08-17T02:38:40.074Z,6.43
2022-08-17T02:41:07.590Z,6.73
2022-08-17T02:43:35.601Z,6.57
2022-08-17T02:46:03.165Z,6.67
2022-08-17T02:48:31.814Z,5.90
2022-08-17T02:51:00.189Z,6.07
2022-08-17T02:53:27.989Z,6.93
2022-08-17T02:56:03.789Z,6.87
2022-08-17T02:58:35.567Z,6.07
2022-08-17T03:01:05.024Z,6.63
2022-08-17T03:03:32.514Z,6.20
2022-08-17T03:06:00.008Z,7.73
2022-08-17T03:08:27.469Z,7.10
2022-08-17T03:10:54.981Z,6.23
2022-08-17T03:13:22.452Z,6.40
2022-08-17T03:15:50.504Z,6.93
2022-08-17T03:18:25.395Z,6.23
2022-08-17T03:20:54.952Z,6.90
2022-08-17T03:23:26.130Z,7.40
2022-08-17T03:25:55.570Z,6.53
2022-08-17T03:28:23.559Z,6.23
2022-08-17T03:30:51.664Z,5.40
2022-08-17T03:33:19.528Z,6.53
2022-08-17T03:35:47.081Z,6.30
2022-08-17T03:38:16.014Z,5.80
2022-08-17T03:40:58.771Z,5.83
2022-08-17T03:43:28.617Z,5.60
2022-08-17T03:45:56.245Z,5.87
2022-08-17T03:48:23.849Z,6.10
2022-08-17T03:50:51.822Z,6.17
2022-08-17T03:53:19.272Z,6.43
2022-08-17T03:55:46.813Z,5.20
2022-08-17T03:58:14.428Z,5.13
2022-08-17T04:00:41.901Z,5.40
2022-08-17T04:03:09.444Z,5.90
2022-08-17T04:05:36.930Z,5.40
2022-08-17T04:08:05.179Z,5.67
2022-08-17T04:10:33.955Z,6.03
2022-08-17T04:13:08.870Z,5.67
2022-08-17T04:15:36.424Z,5.73
2022-08-17T04:18:03.917Z,5.03
2022-08-17T04:20:31.439Z,5.93
2022-08-17T04:23:09.334Z,5.30
2022-08-17T04:25:38.546Z,5.03
2022-08-17T04:28:09.030Z,6.30
2022-08-17T04:30:44.860Z,5.77
2022-08-17T04:33:15.000Z,4.67
2022-08-17T04:35:44.340Z,4.90
2022-08-17T04:38:13.332Z,4.37
2022-08-17T04:40:40.962Z,4.47
2022-08-17T04:43:10.713Z,4.83
2022-08-17T04:45:55.434Z,4.80
2022-08-17T04:48:35.822Z,3.87
2022-08-17T04:51:06.821Z,4.60
2022-08-17T04:53:34.363Z,5.20
2022-08-17T04:56:01.951Z,4.53
2022-08-17T04:58:29.428Z,4.33
2022-08-17T05:00:56.956Z,4.63
2022-08-17T05:03:24.551Z,4.77
2022-08-17T05:05:52.047Z,4.40
2022-08-17T05:08:20.302Z,4.70
2022-08-17T05:10:48.502Z,5.57
2022-08-17T05:13:23.880Z,4.50
2022-08-17T05:15:54.511Z,4.80
2022-08-17T05:18:22.470Z,4.90
2022-08-17T05:20:52.661Z,4.87
2022-08-17T05:23:21.045Z,4.00
2022-08-17T05:25:50.488Z,3.30
2022-08-17T05:28:19.420Z,3.27
2022-08-17T05:30:51.804Z,4.73
2022-08-17T05:33:21.057Z,3.50
2022-08-17T05:35:49.800Z,3.57
2022-08-17T05:38:18.839Z,4.03
2022-08-17T05:40:46.767Z,4.40
2022-08-17T05:43:15.831Z,4.53
2022-08-17T05:45:56.079Z,4.07
2022-08-17T05:48:36.800Z,3.40
2022-08-17T05:51:07.278Z,3.97
2022-08-17T05:53:46.420Z,3.13
2022-08-17T05:56:22.690Z,3.67
2022-08-17T05:59:16.362Z,3.47
2022-08-17T06:01:52.942Z,3.20
2022-08-17T06:04:42.113Z,3.23
2022-08-17T06:07:12.458Z,3.60
2022-08-17T06:10:18.499Z,3.20
2022-08-17T06:13:04.419Z,3.07
2022-08-17T06:15:35.380Z,4.37
2022-08-17T06:18:05.031Z,3.60
2022-08-17T06:20:39.209Z,3.07
2022-08-17T06:23:10.853Z,3.27
2022-08-17T06:25:52.113Z,4.20
2022-08-17T06:28:32.101Z,3.80
2022-08-17T06:31:05.799Z,3.87
2022-08-17T06:33:37.476Z,3.90
2022-08-17T06:36:29.034Z,4.23
2022-08-17T06:39:18.217Z,4.93
2022-08-17T06:41:51.490Z,4.90
2022-08-17T06:44:43.729Z,5.33
2022-08-17T06:47:28.776Z,5.53
2022-08-17T06:50:01.376Z,4.80
2022-08-17T06:52:42.137Z,4.70
2022-08-17T06:55:45.546Z,5.50
2022-08-17T06:58:16.108Z,5.40
2022-08-17T07:00:46.667Z,5.57
2022-08-17T07:03:29.527Z,5.60
2022-08-17T07:06:29.238Z,5.43
2022-08-17T07:09:09.424Z,6.23
2022-08-17T07:11:56.881Z,5.90
2022-08-17T07:14:32.187Z,5.90
2022-08-17T07:17:13.305Z,5.83
2022-08-17T07:19:43.510Z,6.00
2022-08-17T07:22:57.603Z,5.70
2022-08-17T07:25:21.108Z,6.40
2022-08-17T07:27:52.063Z,6.10
2022-08-17T07:30:29.177Z,6.27
2022-08-17T07:32:58.696Z,5.77
2022-08-17T07:35:31.382Z,6.43
2022-08-17T07:38:29.581Z,6.47
2022-08-17T07:40:56.739Z,6.77
2022-08-17T07:43:29.645Z,6.20
2022-08-17T07:46:18.700Z,5.90
2022-08-17T07:48:50.074Z,7.57
2022-08-17T07:51:33.334Z,9.43
2022-08-17T07:54:14.383Z,8.60
2022-08-17T07:56:55.632Z,8.43
2022-08-17T07:59:30.560Z,8.57
2022-08-17T08:02:14.270Z,6.70
2022-08-17T08:05:00.488Z,8.27
2022-08-17T08:07:40.166Z,9.60
2022-08-17T08:10:13.418Z,7.23
2022-08-17T08:12:41.945Z,8.53
2022-08-17T08:15:13.643Z,9.80
2022-08-17T08:17:55.117Z,8.60
2022-08-17T08:20:50.898Z,7.57
2022-08-17T08:23:28.051Z,9.23
2022-08-17T08:26:20.205Z,10.10
2022-08-17T08:29:06.374Z,9.33
2022-08-17T08:31:48.243Z,9.43
2022-08-17T08:34:58.785Z,9.83
2022-08-17T08:37:33.745Z,9.63
2022-08-17T08:40:15.618Z,9.57
2022-08-17T08:42:56.823Z,11.13
2022-08-17T08:45:49.418Z,8.60
2022-08-17T08:48:56.129Z,10.30
2022-08-17T08:51:38.567Z,11.97
2022-08-17T08:54:26.806Z,12.23
2022-08-17T08:57:33.481Z,11.83
2022-08-17T09:00:11.297Z,8.70
2022-08-17T09:03:06.307Z,9.83
2022-08-17T09:05:52.341Z,8.20
2022-08-17T09:08:52.133Z,9.73
2022-08-17T09:12:01.786Z,10.80
2022-08-17T09:14:54.196Z,10.50
2022-08-17T09:17:48.364Z,9.90
2022-08-17T09:20:27.951Z,9.00
2022-08-17T09:23:06.967Z,10.37
2022-08-17T09:25:46.767Z,8.93
2022-08-17T09:28:27.346Z,8.87
2022-08-17T09:30:59.392Z,10.03
2022-08-17T09:33:28.022Z,11.03
2022-08-17T09:36:29.472Z,9.93
2022-08-17T09:39:39.079Z,11.13
2022-08-17T09:42:22.128Z,10.60
2022-08-17T09:44:58.023Z,10.87
2022-08-17T09:47:31.569Z,9.70
2022-08-17T09:51:01.625Z,11.20
2022-08-17T09:53:12.117Z,10.97
2022-08-17T09:55:47.321Z,11.80
2022-08-17T09:58:20.188Z,12.87
2022-08-17T10:01:02.790Z,10.47
2022-08-17T10:03:35.359Z,11.50
2022-08-17T10:06:13.410Z,10.40
2022-08-17T10:08:56.485Z,11.23
2022-08-17T10:11:45.539Z,11.13
2022-08-17T10:14:44.422Z,11.93
2022-08-17T10:17:17.650Z,11.77
2022-08-17T10:19:51.698Z,12.50
2022-08-17T10:22:34.788Z,11.17
2022-08-17T10:25:21.360Z,11.30
2022-08-17T10:28:19.755Z,10.13
2022-08-17T10:31:05.259Z,11.87
2022-08-17T10:34:20.650Z,11.60
2022-08-17T10:36:53.749Z,10.37
2022-08-17T10:39:31.615Z,9.30
2022-08-17T10:42:15.642Z,9.80
2022-08-17T10:45:14.841Z,10.77
2022-08-17T10:48:22.838Z,11.60
2022-08-17T10:50:56.069Z,8.57
2022-08-17T10:53:32.325Z,10.77
2022-08-17T10:56:14.716Z,10.13
2022-08-17T10:58:52.876Z,10.97
2022-08-17T11:01:32.539Z,9.90
2022-08-17T11:04:18.921Z,12.17
2022-08-17T11:07:16.081Z,11.37
2022-08-17T11:09:52.279Z,12.00
2022-08-17T11:12:38.255Z,12.83
2022-08-17T11:15:14.974Z,11.43
2022-08-17T11:18:08.287Z,12.50
2022-08-17T11:20:57.494Z,12.90
2022-08-17T11:23:30.845Z,12.50
2022-08-17T11:26:00.395Z,12.93
2022-08-17T11:28:35.545Z,13.73
2022-08-17T11:31:38.561Z,14.40
2022-08-17T11:34:17.147Z,16.63
2022-08-17T11:37:06.974Z,14.40
2022-08-17T11:39:53.546Z,16.10
2022-08-17T11:42:33.830Z,15.60
2022-08-17T11:45:10.477Z,15.37
2022-08-17T11:48:15.937Z,14.80
2022-08-17T11:50:47.479Z,15.63
2022-08-17T11:53:36.552Z,14.83
2022-08-17T11:56:09.367Z,18.13
2022-08-17T11:58:45.572Z,17.83
2022-08-17T12:01:32.995Z,14.70
2022-08-17T12:04:34.075Z,13.90
2022-08-17T12:07:16.816Z,14.90
2022-08-17T12:09:51.433Z,15.57
2022-08-17T12:12:25.416Z,14.13
2022-08-17T12:15:10.197Z,12.77
2022-08-17T12:17:41.206Z,16.00
2022-08-17T12:20:26.411Z,14.00
2022-08-17T12:23:17.962Z,12.30
2022-08-17T12:25:52.599Z,18.07
2022-08-17T12:28:30.403Z,17.63
2022-08-17T12:31:05.491Z,17.47
2022-08-17T12:33:35.881Z,15.90
2022-08-17T12:36:06.464Z,15.27
2022-08-17T12:38:36.523Z,14.83
2022-08-17T12:41:06.967Z,20.13
2022-08-17T12:43:34.278Z,18.53
2022-08-17T12:46:13.352Z,16.10
2022-08-17T12:48:59.850Z,15.57
2022-08-17T12:51:27.997Z,16.40
2022-08-17T12:53:57.520Z,13.73
2022-08-17T12:56:25.769Z,13.03
2022-08-17T12:58:56.791Z,15.63
2022-08-17T13:01:24.604Z,15.40
2022-08-17T13:03:55.145Z,17.13
2022-08-17T13:06:30.172Z,16.57
2022-08-17T13:09:08.016Z,15.57
2022-08-17T13:11:35.257Z,14.67
2022-08-17T13:14:10.190Z,17.50
2022-08-17T13:16:37.813Z,18.10
2022-08-17T13:19:09.795Z,21.07
2022-08-17T13:21:44.070Z,18.90
2022-08-17T13:24:21.021Z,19.30
2022-08-17T13:27:08.581Z,17.87
2022-08-17T13:29:44.999Z,18.93
2022-08-17T13:32:45.147Z,17.17
2022-08-17T13:35:34.481Z,22.20
2022-08-17T13:38:13.324Z,18.50
2022-08-17T13:40:52.431Z,22.90
2022-08-17T13:43:45.707Z,21.67
2022-08-17T13:46:19.024Z,20.77
2022-08-17T13:48:56.107Z,22.27
2022-08-17T13:51:29.541Z,18.73
2022-08-17T13:54:02.585Z,22.07
2022-08-17T13:56:54.286Z,23.90
2022-08-17T13:59:52.651Z,24.63
2022-08-17T14:02:19.506Z,20.40
2022-08-17T14:04:48.404Z,22.63
2022-08-17T14:07:15.640Z,22.83
2022-08-17T14:09:53.817Z,20.70
2022-08-17T14:12:23.463Z,18.20
2022-08-17T14:14:52.085Z,21.50
2022-08-17T14:17:19.626Z,20.03
2022-08-17T14:19:46.894Z,21.70
2022-08-17T14:22:20.105Z,23.23
2022-08-17T14:24:47.366Z,18.73
2022-08-17T14:27:14.652Z,20.30
2022-08-17T14:29:42.091Z,18.90
2022-08-17T14:32:42.015Z,17.10
2022-08-17T14:35:12.397Z,19.57
2022-08-17T14:37:40.131Z,18.70
2022-08-17T14:40:11.503Z,21.63
2022-08-17T14:42:41.601Z,20.77
2022-08-17T14:45:31.495Z,18.23
2022-08-17T14:47:59.012Z,18.57
2022-08-17T14:50:26.326Z,20.83
2022-08-17T14:52:53.828Z,19.00
2022-08-17T14:55:23.013Z,23.33
2022-08-17T14:57:50.536Z,21.77
2022-08-17T15:00:18.220Z,20.20
2022-08-17T15:02:57.487Z,21.37
2022-08-17T15:05:28.579Z,16.13
2022-08-17T15:07:56.008Z,20.63
2022-08-17T15:10:25.883Z,16.80
2022-08-17T15:12:53.684Z,20.93
2022-08-17T15:15:20.970Z,17.33
2022-08-17T15:17:48.406Z,16.40
2022-08-17T15:20:20.937Z,18.70
2022-08-17T15:22:49.795Z,19.30
2022-08-17T15:25:18.883Z,18.03
2022-08-17T15:27:47.030Z,15.37
2022-08-17T15:30:16.451Z,14.27
2022-08-17T15:32:46.833Z,12.57
2022-08-17T15:35:28.954Z,12.97
2022-08-17T15:38:03.386Z,11.50
2022-08-17T15:40:36.752Z,7.47
2022-08-17T15:43:10.003Z,10.30
2022-08-17T15:45:39.206Z,7.60
2022-08-17T15:48:06.736Z,7.97
2022-08-17T15:50:33.952Z,8.33
2022-08-17T15:53:02.294Z,7.83
2022-08-17T15:55:31.057Z,8.30
2022-08-17T15:57:58.606Z,9.87
2022-08-17T16:00:26.177Z,8.67
2022-08-17T16:03:14.278Z,9.30
2022-08-17T16:05:41.077Z,9.13
2022-08-17T16:08:08.786Z,10.37
2022-08-17T16:10:36.233Z,6.87
2022-08-17T16:13:04.408Z,8.47
2022-08-17T16:15:32.033Z,7.60
2022-08-17T16:17:59.604Z,8.53
2022-08-17T16:20:27.362Z,7.60
2022-08-17T16:22:55.238Z,8.53
2022-08-17T16:25:51.937Z,7.67
2022-08-17T16:28:14.883Z,8.60
2022-08-17T16:30:42.786Z,10.97
2022-08-17T16:33:11.159Z,11.07
2022-08-17T16:35:38.471Z,12.17
2022-08-17T16:38:07.196Z,9.90
2022-08-17T16:40:35.843Z,10.33
2022-08-17T16:43:04.111Z,9.47
2022-08-17T16:45:31.623Z,9.60
2022-08-17T16:47:58.836Z,10.37
2022-08-17T16:50:26.048Z,9.23
2022-08-17T16:53:07.339Z,10.63
2022-08-17T16:55:35.040Z,11.73
2022-08-17T16:58:06.093Z,10.33
2022-08-17T17:00:33.670Z,11.40
2022-08-17T17:03:19.865Z,12.17
2022-08-17T17:06:20.996Z,11.30
2022-08-17T17:09:10.410Z,11.73
2022-08-17T17:11:43.935Z,9.30
2022-08-17T17:14:42.351Z,9.40
2022-08-17T17:17:18.025Z,8.37
2022-08-17T17:20:00.292Z,9.17
2022-08-17T17:22:51.234Z,10.10
2022-08-17T17:25:33.660Z,10.20
2022-08-17T17:28:13.147Z,9.67
2022-08-17T17:30:43.350Z,15.30
2022-08-17T17:33:16.005Z,10.80
2022-08-17T17:35:51.011Z,10.13
2022-08-17T17:38:23.041Z,8.73
2022-08-17T17:41:03.398Z,8.40
2022-08-17T17:43:38.878Z,7.60
2022-08-17T17:46:28.609Z,7.37
2022-08-17T17:48:57.856Z,7.43
2022-08-17T17:52:06.625Z,6.97
2022-08-17T17:54:42.451Z,7.10
2022-08-17T17:57:35.525Z,7.10
2022-08-17T18:00:02.732Z,7.03
2022-08-17T18:02:42.141Z,7.30
2022-08-17T18:05:43.903Z,7.73
2022-08-17T18:08:41.962Z,6.87
2022-08-17T18:11:12.739Z,7.30
2022-08-17T18:13:53.206Z,7.13
2022-08-17T18:16:21.152Z,7.13
2022-08-17T18:18:51.547Z,6.87
2022-08-17T18:21:25.339Z,7.67
2022-08-17T18:23:54.670Z,8.93
2022-08-17T18:26:45.118Z,8.00
2022-08-17T18:29:27.702Z,7.30
2022-08-17T18:32:22.132Z,7.40
2022-08-17T18:34:57.121Z,8.80
2022-08-17T18:38:02.056Z,7.90
2022-08-17T18:40:36.008Z,7.17
2022-08-17T18:43:05.763Z,7.90
2022-08-17T18:45:44.485Z,7.87
2022-08-17T18:48:29.295Z,9.40
2022-08-17T18:51:35.742Z,7.97
2022-08-17T18:54:22.744Z,9.13
2022-08-17T18:57:12.907Z,8.07
2022-08-17T18:59:41.861Z,9.57
2022-08-17T19:02:19.460Z,10.93
2022-08-17T19:05:01.231Z,11.47
2022-08-17T19:07:44.591Z,13.70
2022-08-17T19:10:22.569Z,12.83
2022-08-17T19:13:12.456Z,13.87
2022-08-17T19:16:15.326Z,12.27
2022-08-17T19:19:00.162Z,12.20
2022-08-17T19:21:36.297Z,12.10
2022-08-17T19:24:06.369Z,12.83
2022-08-17T19:26:53.338Z,15.13
2022-08-17T19:29:40.929Z,13.97
2022-08-17T19:32:09.992Z,13.20
2022-08-17T19:34:39.553Z,11.60
2022-08-17T19:37:12.825Z,13.10
2022-08-17T19:39:55.814Z,14.43
2022-08-17T19:42:26.206Z,14.67
2022-08-17T19:45:02.860Z,15.17
2022-08-17T19:47:54.344Z,15.57
2022-08-17T19:50:30.733Z,14.40
2022-08-17T19:53:07.301Z,14.43
2022-08-17T19:55:54.600Z,15.07
2022-08-17T19:58:22.096Z,14.10
2022-08-17T20:00:51.875Z,15.30
2022-08-17T20:03:35.699Z,12.33
2022-08-17T20:06:14.004Z,16.07
2022-08-17T20:08:47.577Z,14.97
2022-08-17T20:11:20.982Z,17.53
2022-08-17T20:13:52.674Z,19.97
2022-08-17T20:16:20.696Z,19.53
2022-08-17T20:18:56.059Z,17.87
2022-08-17T20:21:32.492Z,18.03
2022-08-17T20:24:13.881Z,17.57
2022-08-17T20:26:55.472Z,17.73
2022-08-17T20:29:39.987Z,17.97
2022-08-17T20:32:15.215Z,16.17
2022-08-17T20:34:45.543Z,17.00
2022-08-17T20:37:15.851Z,16.50
2022-08-17T20:39:45.160Z,17.37
2022-08-17T20:42:15.565Z,19.20
2022-08-17T20:44:43.755Z,16.83
2022-08-17T20:47:19.812Z,18.27
2022-08-17T20:49:53.511Z,18.57
2022-08-17T20:52:36.259Z,17.60
2022-08-17T20:55:04.536Z,17.57
2022-08-17T20:57:32.010Z,18.93
2022-08-17T21:00:07.819Z,19.23
2022-08-17T21:02:35.341Z,18.00
2022-08-17T21:05:07.206Z,20.20
2022-08-17T21:07:42.961Z,21.13
2022-08-17T21:10:11.219Z,19.83
2022-08-17T21:12:40.911Z,21.60
2022-08-17T21:15:28.720Z,20.10
2022-08-17T21:18:08.430Z,23.50
2022-08-17T21:20:41.660Z,22.73
2022-08-17T21:23:16.316Z,23.83
2022-08-17T21:25:49.766Z,25.20
2022-08-17T21:28:35.901Z,25.37
2022-08-17T21:31:32.098Z,24.33
2022-08-17T21:34:17.338Z,26.70
2022-08-17T21:36:45.312Z,26.73
2022-08-17T21:39:14.023Z,27.37
2022-08-17T21:41:52.652Z,29.67
2022-08-17T21:44:20.146Z,29.10
2022-08-17T21:46:48.989Z,24.80
2022-08-17T21:49:18.254Z,29.10
2022-08-17T21:51:56.973Z,31.80
2022-08-17T21:54:27.565Z,30.30
2022-08-17T21:56:55.266Z,29.27
2022-08-17T21:59:27.381Z,29.83
2022-08-17T22:01:56.490Z,31.73
2022-08-17T22:04:31.818Z,30.10
2022-08-17T22:07:01.023Z,29.23
2022-08-17T22:09:31.854Z,32.73
2022-08-17T22:12:02.540Z,30.10
2022-08-17T22:14:53.396Z,34.47
2022-08-17T22:17:19.243Z,37.60
2022-08-17T22:19:48.798Z,36.87
2022-08-17T22:22:25.413Z,31.10
2022-08-17T22:24:57.277Z,34.90
2022-08-17T22:27:43.883Z,35.23
2022-08-17T22:30:31.650Z,36.43
2022-08-17T22:33:00.286Z,36.03
2022-08-17T22:35:41.206Z,36.57
2022-08-17T22:38:20.957Z,35.70
2022-08-17T22:40:50.437Z,32.53
2022-08-17T22:43:20.097Z,35.63
2022-08-17T22:45:55.228Z,35.67
2022-08-17T22:48:27.230Z,34.13
2022-08-17T22:51:13.213Z,36.33
2022-08-17T22:53:53.788Z,36.47
2022-08-17T22:56:23.266Z,38.37
2022-08-17T22:58:58.870Z,39.37
2022-08-17T23:01:27.029Z,37.43
2022-08-17T23:03:55.911Z,40.57
2022-08-17T23:06:23.726Z,35.70
2022-08-17T23:08:52.283Z,35.93
2022-08-17T23:11:19.808Z,35.80
2022-08-17T23:17:21.103Z,37.63
2022-08-17T23:19:48.718Z,37.60
2022-08-17T23:22:16.319Z,38.73
2022-08-17T23:24:45.718Z,39.33
2022-08-17T23:27:13.293Z,34.67
2022-08-17T23:29:41.153Z,31.93
2022-08-17T23:32:10.116Z,38.13
2022-08-17T23:34:38.483Z,34.37
2022-08-17T23:37:06.592Z,35.80
2022-08-17T23:39:37.443Z,36.63
2022-08-17T23:42:06.886Z,38.20
2022-08-17T23:44:35.563Z,38.07
2022-08-17T23:47:03.089Z,37.20
2022-08-17T23:49:31.026Z,39.30
2022-08-17T23:52:00.136Z,37.83
2022-08-17T23:54:31.504Z,37.17
2022-08-17T23:57:02.417Z,40.50
2022-08-17T23:59:30.216Z,31.03
